sensor_id;sensor_type;location;lat;lon;timestamp;temperature;humidity
8965;DHT22;4517;49.020;12.066;2022-10-13T00:01:15;10.20;99.90
8965;DHT22;4517;49.020;12.066;2022-10-13T00:03:41;10.20;99.90
8965;DHT22;4517;49.020;12.066;2022-10-13T00:06:09;10.10;99.90
8965;DHT22;4517;49.020;12.066;2022-10-13T00:08:36;10.20;99.90
8965;DHT22;4517;49.020;12.066;2022-10-13T00:11:12;10.20;99.90
8965;DHT22;4517;49.020;12.066;2022-10-13T00:13:38;10.20;99.90
8965;DHT22;4517;49.020;12.066;2022-10-13T00:16:04;10.20;99.90
8965;DHT22;4517;49.020;12.066;2022-10-13T00:18:30;10.20;99.90
8965;DHT22;4517;49.020;12.066;2022-10-13T00:20:56;10.20;99.90
8965;DHT22;4517;49.020;12.066;2022-10-13T00:23:22;10.20;99.90
8965;DHT22;4517;49.020;12.066;2022-10-13T00:25:49;10.30;99.90
8965;DHT22;4517;49.020;12.066;2022-10-13T00:28:18;10.20;99.90
8965;DHT22;4517;49.020;12.066;2022-10-13T00:30:45;10.20;99.90
8965;DHT22;4517;49.020;12.066;2022-10-13T00:33:12;10.20;99.90
8965;DHT22;4517;49.020;12.066;2022-10-13T00:35:42;10.20;99.90
8965;DHT22;4517;49.020;12.066;2022-10-13T00:38:08;10.20;99.90
8965;DHT22;4517;49.020;12.066;2022-10-13T00:40:49;10.20;99.90
8965;DHT22;4517;49.020;12.066;2022-10-13T00:45:45;10.30;99.90
8965;DHT22;4517;49.020;12.066;2022-10-13T00:48:11;10.30;99.90
8965;DHT22;4517;49.020;12.066;2022-10-13T00:50:38;10.30;99.90
8965;DHT22;4517;49.020;12.066;2022-10-13T00:53:05;10.30;99.90
8965;DHT22;4517;49.020;12.066;2022-10-13T00:55:34;10.30;99.90
8965;DHT22;4517;49.020;12.066;2022-10-13T00:58:02;10.30;99.90
8965;DHT22;4517;49.020;12.066;2022-10-13T01:00:30;10.20;99.90
8965;DHT22;4517;49.020;12.066;2022-10-13T01:02:57;10.20;99.90
8965;DHT22;4517;49.020;12.066;2022-10-13T01:05:23;10.10;99.90
8965;DHT22;4517;49.020;12.066;2022-10-13T01:07:50;10.00;99.90
8965;DHT22;4517;49.020;12.066;2022-10-13T01:10:24;9.90;99.90
8965;DHT22;4517;49.020;12.066;2022-10-13T01:19:12;9.60;99.90
8965;DHT22;4517;49.020;12.066;2022-10-13T01:22:07;9.40;99.90
8965;DHT22;4517;49.020;12.066;2022-10-13T01:30:18;9.50;99.90
8965;DHT22;4517;49.020;12.066;2022-10-13T01:33:04;9.60;99.90
8965;DHT22;4517;49.020;12.066;2022-10-13T01:35:41;9.50;99.90
8965;DHT22;4517;49.020;12.066;2022-10-13T01:38:32;9.50;99.90
8965;DHT22;4517;49.020;12.066;2022-10-13T01:41:01;9.50;99.90
8965;DHT22;4517;49.020;12.066;2022-10-13T01:43:31;9.50;99.90
8965;DHT22;4517;49.020;12.066;2022-10-13T01:46:05;9.50;99.90
8965;DHT22;4517;49.020;12.066;2022-10-13T01:48:32;9.50;99.90
8965;DHT22;4517;49.020;12.066;2022-10-13T01:51:00;9.60;99.90
8965;DHT22;4517;49.020;12.066;2022-10-13T01:53:26;9.60;99.90
8965;DHT22;4517;49.020;12.066;2022-10-13T01:55:55;9.70;99.90
8965;DHT22;4517;49.020;12.066;2022-10-13T01:58:22;9.70;99.90
8965;DHT22;4517;49.020;12.066;2022-10-13T02:00:59;9.80;99.90
8965;DHT22;4517;49.020;12.066;2022-10-13T02:04:06;9.80;99.90
8965;DHT22;4517;49.020;12.066;2022-10-13T02:06:41;9.80;99.90
8965;DHT22;4517;49.020;12.066;2022-10-13T02:12:04;10.00;99.90
8965;DHT22;4517;49.020;12.066;2022-10-13T02:14:32;10.00;99.90
8965;DHT22;4517;49.020;12.066;2022-10-13T02:17:03;10.00;99.90
8965;DHT22;4517;49.020;12.066;2022-10-13T02:19:31;10.10;99.90
8965;DHT22;4517;49.020;12.066;2022-10-13T02:21:58;10.00;99.90
8965;DHT22;4517;49.020;12.066;2022-10-13T02:24:24;10.10;99.90
8965;DHT22;4517;49.020;12.066;2022-10-13T02:26:50;10.10;99.90
8965;DHT22;4517;49.020;12.066;2022-10-13T02:29:17;10.10;99.90
8965;DHT22;4517;49.020;12.066;2022-10-13T02:31:44;10.10;99.90
8965;DHT22;4517;49.020;12.066;2022-10-13T02:34:10;10.10;99.90
8965;DHT22;4517;49.020;12.066;2022-10-13T02:36:36;10.10;99.90
8965;DHT22;4517;49.020;12.066;2022-10-13T02:39:03;10.20;99.90
8965;DHT22;4517;49.020;12.066;2022-10-13T02:41:29;10.20;99.90
8965;DHT22;4517;49.020;12.066;2022-10-13T02:43:54;10.20;99.90
8965;DHT22;4517;49.020;12.066;2022-10-13T02:46:20;10.20;99.90
8965;DHT22;4517;49.020;12.066;2022-10-13T02:48:46;10.20;99.90
8965;DHT22;4517;49.020;12.066;2022-10-13T02:51:11;10.30;99.90
8965;DHT22;4517;49.020;12.066;2022-10-13T02:53:37;10.30;99.90
8965;DHT22;4517;49.020;12.066;2022-10-13T02:56:04;10.30;99.90
8965;DHT22;4517;49.020;12.066;2022-10-13T02:58:29;10.30;99.90
8965;DHT22;4517;49.020;12.066;2022-10-13T03:01:04;10.30;99.90
8965;DHT22;4517;49.020;12.066;2022-10-13T03:03:30;10.40;99.90
8965;DHT22;4517;49.020;12.066;2022-10-13T03:05:55;10.40;99.90
8965;DHT22;4517;49.020;12.066;2022-10-13T03:08:21;10.40;99.90
8965;DHT22;4517;49.020;12.066;2022-10-13T03:10:46;10.40;99.90
8965;DHT22;4517;49.020;12.066;2022-10-13T03:13:12;10.50;99.90
8965;DHT22;4517;49.020;12.066;2022-10-13T03:15:38;10.50;99.90
8965;DHT22;4517;49.020;12.066;2022-10-13T03:18:04;10.50;99.90
8965;DHT22;4517;49.020;12.066;2022-10-13T03:20:29;10.50;99.90
8965;DHT22;4517;49.020;12.066;2022-10-13T03:22:55;10.50;99.90
8965;DHT22;4517;49.020;12.066;2022-10-13T03:25:20;10.50;99.90
8965;DHT22;4517;49.020;12.066;2022-10-13T03:27:46;10.50;99.90
8965;DHT22;4517;49.020;12.066;2022-10-13T03:30:12;10.50;99.90
8965;DHT22;4517;49.020;12.066;2022-10-13T03:32:37;10.50;99.90
8965;DHT22;4517;49.020;12.066;2022-10-13T03:35:05;10.50;99.90
8965;DHT22;4517;49.020;12.066;2022-10-13T03:37:30;10.50;99.90
8965;DHT22;4517;49.020;12.066;2022-10-13T03:39:56;10.50;99.90
8965;DHT22;4517;49.020;12.066;2022-10-13T03:42:22;10.50;99.90
8965;DHT22;4517;49.020;12.066;2022-10-13T03:44:47;10.50;99.90
8965;DHT22;4517;49.020;12.066;2022-10-13T03:47:13;10.50;99.90
8965;DHT22;4517;49.020;12.066;2022-10-13T03:49:39;10.50;99.90
8965;DHT22;4517;49.020;12.066;2022-10-13T03:52:05;10.50;99.90
8965;DHT22;4517;49.020;12.066;2022-10-13T03:54:30;10.50;99.90
8965;DHT22;4517;49.020;12.066;2022-10-13T03:56:56;10.60;99.90
8965;DHT22;4517;49.020;12.066;2022-10-13T03:59:21;10.60;99.90
8965;DHT22;4517;49.020;12.066;2022-10-13T04:01:47;10.60;99.90
8965;DHT22;4517;49.020;12.066;2022-10-13T04:04:13;10.60;99.90
8965;DHT22;4517;49.020;12.066;2022-10-13T04:06:38;10.50;99.90
8965;DHT22;4517;49.020;12.066;2022-10-13T04:09:04;10.50;99.90
8965;DHT22;4517;49.020;12.066;2022-10-13T04:11:30;10.50;99.90
8965;DHT22;4517;49.020;12.066;2022-10-13T04:13:56;10.50;99.90
8965;DHT22;4517;49.020;12.066;2022-10-13T04:16:24;10.50;99.90
8965;DHT22;4517;49.020;12.066;2022-10-13T04:18:52;10.50;99.90
8965;DHT22;4517;49.020;12.066;2022-10-13T04:21:19;10.50;99.90
8965;DHT22;4517;49.020;12.066;2022-10-13T04:23:45;10.60;99.90
8965;DHT22;4517;49.020;12.066;2022-10-13T04:26:21;10.60;99.90
8965;DHT22;4517;49.020;12.066;2022-10-13T04:28:48;10.70;99.90
8965;DHT22;4517;49.020;12.066;2022-10-13T04:31:15;10.80;99.90
8965;DHT22;4517;49.020;12.066;2022-10-13T04:33:41;11.00;99.90
8965;DHT22;4517;49.020;12.066;2022-10-13T04:36:08;11.30;99.90
8965;DHT22;4517;49.020;12.066;2022-10-13T04:38:34;11.20;99.90
8965;DHT22;4517;49.020;12.066;2022-10-13T04:41:04;11.20;99.90
8965;DHT22;4517;49.020;12.066;2022-10-13T04:43:31;11.00;99.90
8965;DHT22;4517;49.020;12.066;2022-10-13T04:46:05;11.00;99.90
8965;DHT22;4517;49.020;12.066;2022-10-13T04:48:31;11.00;99.90
8965;DHT22;4517;49.020;12.066;2022-10-13T04:51:01;11.10;99.90
8965;DHT22;4517;49.020;12.066;2022-10-13T04:53:28;11.20;99.90
8965;DHT22;4517;49.020;12.066;2022-10-13T04:55:55;11.30;99.90
8965;DHT22;4517;49.020;12.066;2022-10-13T04:58:21;11.20;99.90
8965;DHT22;4517;49.020;12.066;2022-10-13T05:00:47;11.10;99.90
8965;DHT22;4517;49.020;12.066;2022-10-13T05:03:12;11.10;99.90
8965;DHT22;4517;49.020;12.066;2022-10-13T05:05:38;11.00;99.90
8965;DHT22;4517;49.020;12.066;2022-10-13T05:08:04;11.00;99.90
8965;DHT22;4517;49.020;12.066;2022-10-13T05:10:30;11.00;99.90
8965;DHT22;4517;49.020;12.066;2022-10-13T05:12:56;11.00;99.90
8965;DHT22;4517;49.020;12.066;2022-10-13T05:15:21;11.10;99.90
8965;DHT22;4517;49.020;12.066;2022-10-13T05:17:47;11.10;99.90
8965;DHT22;4517;49.020;12.066;2022-10-13T05:20:12;11.10;99.90
8965;DHT22;4517;49.020;12.066;2022-10-13T05:22:38;11.10;99.90
8965;DHT22;4517;49.020;12.066;2022-10-13T05:25:04;11.10;99.90
8965;DHT22;4517;49.020;12.066;2022-10-13T05:27:30;11.20;99.90
8965;DHT22;4517;49.020;12.066;2022-10-13T05:29:55;11.20;99.90
8965;DHT22;4517;49.020;12.066;2022-10-13T05:32:21;11.20;99.90
8965;DHT22;4517;49.020;12.066;2022-10-13T05:34:47;11.20;99.90
8965;DHT22;4517;49.020;12.066;2022-10-13T05:37:13;11.20;99.90
8965;DHT22;4517;49.020;12.066;2022-10-13T05:39:41;11.20;99.90
8965;DHT22;4517;49.020;12.066;2022-10-13T05:42:07;11.20;99.90
8965;DHT22;4517;49.020;12.066;2022-10-13T05:44:33;11.30;99.90
8965;DHT22;4517;49.020;12.066;2022-10-13T05:47:00;11.30;99.90
8965;DHT22;4517;49.020;12.066;2022-10-13T05:49:27;11.30;99.90
8965;DHT22;4517;49.020;12.066;2022-10-13T05:51:56;11.40;99.90
8965;DHT22;4517;49.020;12.066;2022-10-13T05:54:41;11.40;99.90
8965;DHT22;4517;49.020;12.066;2022-10-13T05:59:38;11.40;99.90
8965;DHT22;4517;49.020;12.066;2022-10-13T06:02:06;11.40;99.90
8965;DHT22;4517;49.020;12.066;2022-10-13T06:04:44;11.50;99.90
8965;DHT22;4517;49.020;12.066;2022-10-13T06:07:11;11.60;99.90
8965;DHT22;4517;49.020;12.066;2022-10-13T06:09:39;11.60;99.90
8965;DHT22;4517;49.020;12.066;2022-10-13T06:12:07;11.70;99.90
8965;DHT22;4517;49.020;12.066;2022-10-13T06:14:33;11.70;99.90
8965;DHT22;4517;49.020;12.066;2022-10-13T06:16:59;11.80;99.90
8965;DHT22;4517;49.020;12.066;2022-10-13T06:19:24;11.80;99.90
8965;DHT22;4517;49.020;12.066;2022-10-13T06:21:50;11.80;99.90
8965;DHT22;4517;49.020;12.066;2022-10-13T06:24:15;11.90;99.90
8965;DHT22;4517;49.020;12.066;2022-10-13T06:26:41;11.90;99.90
8965;DHT22;4517;49.020;12.066;2022-10-13T06:29:07;11.90;99.90
8965;DHT22;4517;49.020;12.066;2022-10-13T06:31:33;11.90;99.90
8965;DHT22;4517;49.020;12.066;2022-10-13T06:33:58;11.90;99.90
8965;DHT22;4517;49.020;12.066;2022-10-13T06:36:24;11.90;99.90
8965;DHT22;4517;49.020;12.066;2022-10-13T06:38:50;11.90;99.90
8965;DHT22;4517;49.020;12.066;2022-10-13T06:41:16;11.90;99.90
8965;DHT22;4517;49.020;12.066;2022-10-13T06:43:42;11.90;99.90
8965;DHT22;4517;49.020;12.066;2022-10-13T06:46:08;11.90;99.90
8965;DHT22;4517;49.020;12.066;2022-10-13T06:48:34;11.90;99.90
8965;DHT22;4517;49.020;12.066;2022-10-13T06:51:07;12.00;99.90
8965;DHT22;4517;49.020;12.066;2022-10-13T06:53:33;12.10;99.90
8965;DHT22;4517;49.020;12.066;2022-10-13T06:56:00;12.10;99.90
8965;DHT22;4517;49.020;12.066;2022-10-13T06:58:27;12.20;99.90
8965;DHT22;4517;49.020;12.066;2022-10-13T07:00:53;12.20;99.90
8965;DHT22;4517;49.020;12.066;2022-10-13T07:03:19;12.20;99.90
8965;DHT22;4517;49.020;12.066;2022-10-13T07:05:45;12.30;99.90
8965;DHT22;4517;49.020;12.066;2022-10-13T07:08:11;12.40;99.90
8965;DHT22;4517;49.020;12.066;2022-10-13T07:10:38;12.50;99.90
8965;DHT22;4517;49.020;12.066;2022-10-13T07:13:03;12.70;99.90
8965;DHT22;4517;49.020;12.066;2022-10-13T07:15:29;12.90;99.90
8965;DHT22;4517;49.020;12.066;2022-10-13T07:17:55;13.00;99.90
8965;DHT22;4517;49.020;12.066;2022-10-13T07:20:22;13.10;99.90
8965;DHT22;4517;49.020;12.066;2022-10-13T07:22:48;13.10;99.90
8965;DHT22;4517;49.020;12.066;2022-10-13T07:25:14;13.20;99.90
8965;DHT22;4517;49.020;12.066;2022-10-13T07:27:40;13.20;99.90
8965;DHT22;4517;49.020;12.066;2022-10-13T07:30:07;13.20;99.90
8965;DHT22;4517;49.020;12.066;2022-10-13T07:32:33;13.30;99.90
8965;DHT22;4517;49.020;12.066;2022-10-13T07:35:00;13.30;99.90
8965;DHT22;4517;49.020;12.066;2022-10-13T07:37:26;13.40;99.90
8965;DHT22;4517;49.020;12.066;2022-10-13T07:39:51;13.30;99.90
8965;DHT22;4517;49.020;12.066;2022-10-13T07:42:17;13.40;99.90
8965;DHT22;4517;49.020;12.066;2022-10-13T07:44:43;13.60;99.90
8965;DHT22;4517;49.020;12.066;2022-10-13T07:47:09;13.70;99.90
8965;DHT22;4517;49.020;12.066;2022-10-13T07:49:35;13.60;99.90
8965;DHT22;4517;49.020;12.066;2022-10-13T07:52:00;13.40;99.90
8965;DHT22;4517;49.020;12.066;2022-10-13T07:54:26;13.50;99.90
8965;DHT22;4517;49.020;12.066;2022-10-13T07:56:53;13.50;99.90
8965;DHT22;4517;49.020;12.066;2022-10-13T07:59:19;13.50;99.90
8965;DHT22;4517;49.020;12.066;2022-10-13T08:01:44;13.40;99.90
8965;DHT22;4517;49.020;12.066;2022-10-13T08:04:10;13.40;99.90
8965;DHT22;4517;49.020;12.066;2022-10-13T08:06:36;13.50;99.90
8965;DHT22;4517;49.020;12.066;2022-10-13T08:09:02;13.40;99.90
8965;DHT22;4517;49.020;12.066;2022-10-13T08:11:29;13.60;99.90
8965;DHT22;4517;49.020;12.066;2022-10-13T08:13:55;13.70;99.90
8965;DHT22;4517;49.020;12.066;2022-10-13T08:16:26;13.80;99.90
8965;DHT22;4517;49.020;12.066;2022-10-13T08:18:52;13.90;99.90
8965;DHT22;4517;49.020;12.066;2022-10-13T08:21:19;14.20;99.90
8965;DHT22;4517;49.020;12.066;2022-10-13T08:23:46;14.50;99.90
8965;DHT22;4517;49.020;12.066;2022-10-13T08:26:19;14.70;99.90
8965;DHT22;4517;49.020;12.066;2022-10-13T08:28:46;14.80;99.90
8965;DHT22;4517;49.020;12.066;2022-10-13T08:31:12;14.80;99.90
8965;DHT22;4517;49.020;12.066;2022-10-13T08:33:37;14.70;99.90
8965;DHT22;4517;49.020;12.066;2022-10-13T08:36:03;14.60;99.90
8965;DHT22;4517;49.020;12.066;2022-10-13T08:38:29;14.50;99.90
8965;DHT22;4517;49.020;12.066;2022-10-13T08:40:54;14.40;99.90
8965;DHT22;4517;49.020;12.066;2022-10-13T08:43:22;14.40;99.90
8965;DHT22;4517;49.020;12.066;2022-10-13T08:45:51;14.30;99.90
8965;DHT22;4517;49.020;12.066;2022-10-13T08:48:23;14.30;99.90
8965;DHT22;4517;49.020;12.066;2022-10-13T08:50:53;14.40;99.90
8965;DHT22;4517;49.020;12.066;2022-10-13T08:53:37;14.50;99.90
8965;DHT22;4517;49.020;12.066;2022-10-13T08:56:13;14.80;99.90
8965;DHT22;4517;49.020;12.066;2022-10-13T08:58:41;14.80;99.90
8965;DHT22;4517;49.020;12.066;2022-10-13T09:06:27;14.80;99.90
8965;DHT22;4517;49.020;12.066;2022-10-13T09:09:04;14.90;99.90
8965;DHT22;4517;49.020;12.066;2022-10-13T09:11:41;15.00;99.90
8965;DHT22;4517;49.020;12.066;2022-10-13T09:14:26;14.80;99.90
8965;DHT22;4517;49.020;12.066;2022-10-13T09:16:53;14.80;99.90
8965;DHT22;4517;49.020;12.066;2022-10-13T09:19:26;15.10;99.90
8965;DHT22;4517;49.020;12.066;2022-10-13T09:21:55;15.20;99.90
8965;DHT22;4517;49.020;12.066;2022-10-13T09:24:24;15.30;99.90
8965;DHT22;4517;49.020;12.066;2022-10-13T09:27:14;15.40;99.90
8965;DHT22;4517;49.020;12.066;2022-10-13T09:29:41;15.20;99.90
8965;DHT22;4517;49.020;12.066;2022-10-13T09:32:17;15.50;99.90
8965;DHT22;4517;49.020;12.066;2022-10-13T09:34:44;15.50;99.90
8965;DHT22;4517;49.020;12.066;2022-10-13T09:37:23;15.60;99.90
8965;DHT22;4517;49.020;12.066;2022-10-13T09:40:01;15.70;99.90
8965;DHT22;4517;49.020;12.066;2022-10-13T09:42:36;15.60;99.90
8965;DHT22;4517;49.020;12.066;2022-10-13T09:45:14;15.70;99.90
8965;DHT22;4517;49.020;12.066;2022-10-13T09:47:40;15.30;99.90
8965;DHT22;4517;49.020;12.066;2022-10-13T09:52:44;15.30;99.90
8965;DHT22;4517;49.020;12.066;2022-10-13T09:55:31;15.50;99.90
8965;DHT22;4517;49.020;12.066;2022-10-13T09:58:09;15.50;99.90
8965;DHT22;4517;49.020;12.066;2022-10-13T10:00:38;15.20;99.90
8965;DHT22;4517;49.020;12.066;2022-10-13T10:03:26;15.30;99.90
8965;DHT22;4517;49.020;12.066;2022-10-13T10:05:56;15.30;99.90
8965;DHT22;4517;49.020;12.066;2022-10-13T10:11:14;15.10;99.90
8965;DHT22;4517;49.020;12.066;2022-10-13T10:13:41;14.90;99.90
8965;DHT22;4517;49.020;12.066;2022-10-13T10:16:18;15.00;99.90
8965;DHT22;4517;49.020;12.066;2022-10-13T10:18:48;15.00;99.90
8965;DHT22;4517;49.020;12.066;2022-10-13T10:23:52;15.30;99.90
8965;DHT22;4517;49.020;12.066;2022-10-13T10:26:34;15.40;99.90
8965;DHT22;4517;49.020;12.066;2022-10-13T10:29:18;15.40;99.90
8965;DHT22;4517;49.020;12.066;2022-10-13T10:32:10;15.60;99.90
8965;DHT22;4517;49.020;12.066;2022-10-13T10:34:53;15.40;99.90
8965;DHT22;4517;49.020;12.066;2022-10-13T10:40:13;15.60;99.90
8965;DHT22;4517;49.020;12.066;2022-10-13T10:43:15;15.40;99.90
8965;DHT22;4517;49.020;12.066;2022-10-13T10:45:46;15.30;99.90
8965;DHT22;4517;49.020;12.066;2022-10-13T10:48:20;15.40;99.90
8965;DHT22;4517;49.020;12.066;2022-10-13T10:50:48;15.30;99.90
8965;DHT22;4517;49.020;12.066;2022-10-13T10:58:45;15.30;99.90
8965;DHT22;4517;49.020;12.066;2022-10-13T11:01:24;15.20;99.90
8965;DHT22;4517;49.020;12.066;2022-10-13T11:06:49;15.00;99.90
8965;DHT22;4517;49.020;12.066;2022-10-13T11:09:59;14.90;99.90
8965;DHT22;4517;49.020;12.066;2022-10-13T11:12:23;14.90;99.90
8965;DHT22;4517;49.020;12.066;2022-10-13T11:17:31;14.90;99.90
8965;DHT22;4517;49.020;12.066;2022-10-13T11:19:58;15.00;99.90
8965;DHT22;4517;49.020;12.066;2022-10-13T11:22:29;15.20;99.90
8965;DHT22;4517;49.020;12.066;2022-10-13T11:29:52;15.90;99.90
8965;DHT22;4517;49.020;12.066;2022-10-13T11:37:57;16.50;99.90
8965;DHT22;4517;49.020;12.066;2022-10-13T11:40:40;16.50;99.90
8965;DHT22;4517;49.020;12.066;2022-10-13T11:43:49;16.40;99.90
8965;DHT22;4517;49.020;12.066;2022-10-13T11:54:28;16.20;99.90
8965;DHT22;4517;49.020;12.066;2022-10-13T11:56:57;16.20;99.90
8965;DHT22;4517;49.020;12.066;2022-10-13T11:59:32;16.10;99.90
8965;DHT22;4517;49.020;12.066;2022-10-13T12:02:14;16.20;99.90
8965;DHT22;4517;49.020;12.066;2022-10-13T12:04:45;16.20;99.90
8965;DHT22;4517;49.020;12.066;2022-10-13T12:07:24;16.40;99.90
8965;DHT22;4517;49.020;12.066;2022-10-13T12:09:52;16.50;99.90
8965;DHT22;4517;49.020;12.066;2022-10-13T12:12:19;16.60;99.90
8965;DHT22;4517;49.020;12.066;2022-10-13T12:14:48;16.80;99.90
8965;DHT22;4517;49.020;12.066;2022-10-13T12:19:44;17.00;99.90
8965;DHT22;4517;49.020;12.066;2022-10-13T12:22:11;17.30;99.90
8965;DHT22;4517;49.020;12.066;2022-10-13T12:24:37;17.30;99.90
8965;DHT22;4517;49.020;12.066;2022-10-13T12:27:17;17.20;99.90
8965;DHT22;4517;49.020;12.066;2022-10-13T12:29:44;17.20;99.90
8965;DHT22;4517;49.020;12.066;2022-10-13T12:32:20;17.20;99.90
8965;DHT22;4517;49.020;12.066;2022-10-13T12:34:46;17.10;99.90
8965;DHT22;4517;49.020;12.066;2022-10-13T12:37:29;17.20;99.90
8965;DHT22;4517;49.020;12.066;2022-10-13T12:39:58;17.10;99.90
8965;DHT22;4517;49.020;12.066;2022-10-13T12:42:28;17.00;99.90
8965;DHT22;4517;49.020;12.066;2022-10-13T12:44:55;17.00;99.90
8965;DHT22;4517;49.020;12.066;2022-10-13T12:47:36;17.30;99.90
8965;DHT22;4517;49.020;12.066;2022-10-13T12:50:31;17.50;99.90
8965;DHT22;4517;49.020;12.066;2022-10-13T12:53:20;17.60;99.90
8965;DHT22;4517;49.020;12.066;2022-10-13T12:55:52;17.80;99.90
8965;DHT22;4517;49.020;12.066;2022-10-13T12:58:28;18.10;99.90
8965;DHT22;4517;49.020;12.066;2022-10-13T13:00:57;18.10;99.90
8965;DHT22;4517;49.020;12.066;2022-10-13T13:03:27;18.20;99.90
8965;DHT22;4517;49.020;12.066;2022-10-13T13:06:28;18.10;99.90
8965;DHT22;4517;49.020;12.066;2022-10-13T13:09:17;17.90;99.90
8965;DHT22;4517;49.020;12.066;2022-10-13T13:11:43;18.10;99.90
8965;DHT22;4517;49.020;12.066;2022-10-13T13:19:48;17.80;99.90
8965;DHT22;4517;49.020;12.066;2022-10-13T13:22:14;17.90;99.90
8965;DHT22;4517;49.020;12.066;2022-10-13T13:24:40;17.90;99.90
8965;DHT22;4517;49.020;12.066;2022-10-13T13:27:24;17.70;99.90
8965;DHT22;4517;49.020;12.066;2022-10-13T13:29:50;17.70;99.90
8965;DHT22;4517;49.020;12.066;2022-10-13T13:32:19;17.70;99.90
8965;DHT22;4517;49.020;12.066;2022-10-13T13:34:44;17.60;99.90
8965;DHT22;4517;49.020;12.066;2022-10-13T13:37:32;17.60;99.90
8965;DHT22;4517;49.020;12.066;2022-10-13T13:39:59;17.50;99.90
8965;DHT22;4517;49.020;12.066;2022-10-13T13:42:27;17.50;99.90
8965;DHT22;4517;49.020;12.066;2022-10-13T13:44:53;17.50;99.90
8965;DHT22;4517;49.020;12.066;2022-10-13T13:47:21;17.50;99.90
8965;DHT22;4517;49.020;12.066;2022-10-13T13:49:49;17.60;99.90
8965;DHT22;4517;49.020;12.066;2022-10-13T13:52:16;17.60;99.90
8965;DHT22;4517;49.020;12.066;2022-10-13T13:54:42;17.70;99.90
8965;DHT22;4517;49.020;12.066;2022-10-13T13:57:09;17.70;99.90
8965;DHT22;4517;49.020;12.066;2022-10-13T13:59:35;17.60;99.90
8965;DHT22;4517;49.020;12.066;2022-10-13T14:02:00;17.60;99.90
8965;DHT22;4517;49.020;12.066;2022-10-13T14:04:26;17.60;99.90
8965;DHT22;4517;49.020;12.066;2022-10-13T14:06:52;17.50;99.90
8965;DHT22;4517;49.020;12.066;2022-10-13T14:09:18;17.50;99.90
8965;DHT22;4517;49.020;12.066;2022-10-13T14:11:43;17.50;99.90
8965;DHT22;4517;49.020;12.066;2022-10-13T14:14:09;17.30;99.90
8965;DHT22;4517;49.020;12.066;2022-10-13T14:16:34;17.10;99.90
8965;DHT22;4517;49.020;12.066;2022-10-13T14:19:00;17.20;99.90
8965;DHT22;4517;49.020;12.066;2022-10-13T14:21:25;17.20;99.90
8965;DHT22;4517;49.020;12.066;2022-10-13T14:23:51;17.20;99.90
8965;DHT22;4517;49.020;12.066;2022-10-13T14:26:17;17.20;99.90
8965;DHT22;4517;49.020;12.066;2022-10-13T14:28:43;17.20;99.90
8965;DHT22;4517;49.020;12.066;2022-10-13T14:31:09;17.10;99.90
8965;DHT22;4517;49.020;12.066;2022-10-13T14:33:35;17.00;99.90
8965;DHT22;4517;49.020;12.066;2022-10-13T14:36:02;17.00;99.90
8965;DHT22;4517;49.020;12.066;2022-10-13T14:38:28;16.80;99.90
8965;DHT22;4517;49.020;12.066;2022-10-13T14:40:58;16.70;99.90
8965;DHT22;4517;49.020;12.066;2022-10-13T14:43:24;16.70;99.90
8965;DHT22;4517;49.020;12.066;2022-10-13T14:45:50;16.60;99.90
8965;DHT22;4517;49.020;12.066;2022-10-13T14:48:16;16.50;99.90
8965;DHT22;4517;49.020;12.066;2022-10-13T14:50:41;16.50;99.90
8965;DHT22;4517;49.020;12.066;2022-10-13T14:53:07;16.50;99.90
8965;DHT22;4517;49.020;12.066;2022-10-13T14:55:35;16.40;99.90
8965;DHT22;4517;49.020;12.066;2022-10-13T14:58:01;16.40;99.90
8965;DHT22;4517;49.020;12.066;2022-10-13T15:00:27;16.40;99.90
8965;DHT22;4517;49.020;12.066;2022-10-13T15:02:52;16.30;99.90
8965;DHT22;4517;49.020;12.066;2022-10-13T15:05:18;16.30;99.90
8965;DHT22;4517;49.020;12.066;2022-10-13T15:07:44;16.30;99.90
8965;DHT22;4517;49.020;12.066;2022-10-13T15:10:09;16.40;99.90
8965;DHT22;4517;49.020;12.066;2022-10-13T15:12:35;16.20;99.90
8965;DHT22;4517;49.020;12.066;2022-10-13T15:15:01;16.10;99.90
8965;DHT22;4517;49.020;12.066;2022-10-13T15:17:26;16.00;99.90
8965;DHT22;4517;49.020;12.066;2022-10-13T15:19:52;15.90;99.90
8965;DHT22;4517;49.020;12.066;2022-10-13T15:22:18;15.80;99.90
8965;DHT22;4517;49.020;12.066;2022-10-13T15:24:44;15.80;99.90
8965;DHT22;4517;49.020;12.066;2022-10-13T15:27:10;15.70;99.90
8965;DHT22;4517;49.020;12.066;2022-10-13T15:29:35;15.60;99.90
8965;DHT22;4517;49.020;12.066;2022-10-13T15:32:09;15.50;99.90
8965;DHT22;4517;49.020;12.066;2022-10-13T15:34:38;15.40;99.90
8965;DHT22;4517;49.020;12.066;2022-10-13T15:37:04;15.30;99.90
8965;DHT22;4517;49.020;12.066;2022-10-13T15:39:29;15.20;99.90
8965;DHT22;4517;49.020;12.066;2022-10-13T15:41:55;15.10;99.90
8965;DHT22;4517;49.020;12.066;2022-10-13T15:44:24;15.00;99.90
8965;DHT22;4517;49.020;12.066;2022-10-13T15:46:50;15.00;99.90
8965;DHT22;4517;49.020;12.066;2022-10-13T15:49:15;14.90;99.90
8965;DHT22;4517;49.020;12.066;2022-10-13T15:51:41;14.80;99.90
8965;DHT22;4517;49.020;12.066;2022-10-13T15:54:06;14.80;99.90
8965;DHT22;4517;49.020;12.066;2022-10-13T15:56:32;14.80;99.90
8965;DHT22;4517;49.020;12.066;2022-10-13T15:58:57;14.80;99.90
8965;DHT22;4517;49.020;12.066;2022-10-13T16:01:23;14.60;99.90
8965;DHT22;4517;49.020;12.066;2022-10-13T16:03:53;14.40;99.90
8965;DHT22;4517;49.020;12.066;2022-10-13T16:06:19;14.30;99.90
8965;DHT22;4517;49.020;12.066;2022-10-13T16:08:46;14.10;99.90
8965;DHT22;4517;49.020;12.066;2022-10-13T16:11:14;14.00;99.90
8965;DHT22;4517;49.020;12.066;2022-10-13T16:13:41;13.80;99.90
8965;DHT22;4517;49.020;12.066;2022-10-13T16:16:09;13.70;99.90
8965;DHT22;4517;49.020;12.066;2022-10-13T16:18:36;13.70;99.90
8965;DHT22;4517;49.020;12.066;2022-10-13T16:21:14;13.60;99.90
8965;DHT22;4517;49.020;12.066;2022-10-13T16:23:40;13.50;99.90
8965;DHT22;4517;49.020;12.066;2022-10-13T16:26:07;13.30;99.90
8965;DHT22;4517;49.020;12.066;2022-10-13T16:28:33;13.20;99.90
8965;DHT22;4517;49.020;12.066;2022-10-13T16:31:03;13.10;99.90
8965;DHT22;4517;49.020;12.066;2022-10-13T16:33:28;13.00;99.90
8965;DHT22;4517;49.020;12.066;2022-10-13T16:36:01;13.00;99.90
8965;DHT22;4517;49.020;12.066;2022-10-13T16:38:27;13.00;99.90
8965;DHT22;4517;49.020;12.066;2022-10-13T16:40:53;12.90;99.90
8965;DHT22;4517;49.020;12.066;2022-10-13T16:43:18;12.80;99.90
8965;DHT22;4517;49.020;12.066;2022-10-13T16:45:54;12.70;99.90
8965;DHT22;4517;49.020;12.066;2022-10-13T16:48:19;12.60;99.90
8965;DHT22;4517;49.020;12.066;2022-10-13T16:50:45;12.50;99.90
8965;DHT22;4517;49.020;12.066;2022-10-13T16:53:10;12.40;99.90
8965;DHT22;4517;49.020;12.066;2022-10-13T16:55:38;12.40;99.90
8965;DHT22;4517;49.020;12.066;2022-10-13T16:58:04;12.20;99.90
8965;DHT22;4517;49.020;12.066;2022-10-13T17:00:29;12.10;99.90
8965;DHT22;4517;49.020;12.066;2022-10-13T17:02:55;12.00;99.90
8965;DHT22;4517;49.020;12.066;2022-10-13T17:05:20;12.00;99.90
8965;DHT22;4517;49.020;12.066;2022-10-13T17:07:46;12.00;99.90
8965;DHT22;4517;49.020;12.066;2022-10-13T17:10:11;11.90;99.90
8965;DHT22;4517;49.020;12.066;2022-10-13T17:12:37;11.90;99.90